Impacts TAF Board
For situational awareness. Not to be used for flight planning purposes.
IDs:

KMIA - Miami Intl, FL, US

Issued at 0856 UTC 25 May 2020
Updated at 0857 UTC 25 May 2020
Potential Impact None Slight Moderate High
Time0853Z 25/09Z 25/10Z 25/11Z 25/12Z 25/13Z 25/14Z 25/15Z 25/16Z 25/17Z 25/18Z 25/19Z 25/20Z 25/21Z>>
Type OBS PRVL PRVL PRVL PRVL PRVL PRVL PRVL PRVL PRVL PRVL PRVL PRVL PRVL
VIS 6 6 6 6 6 6 6 6 6 6 6 6 6 6
CIG 65 25 25 25 25 25 25 25 25 25 25 25 25 25
Cover OVC BKN BKN BKN BKN BKN BKN BKN BKN BKN BKN BKN BKN BKN
FltCat VFR MVFR MVFR MVFR MVFR MVFR MVFR MVFR MVFR MVFR MVFR MVFR MVFR MVFR
WX -RA BR SHRA VCTS SHRA VCTS SHRA VCTS SHRA VCTS SHRA VCTS SHRA VCTS SHRA VCTS SHRA VCTS SHRA VCTS SHRA VCTS SHRA VCTS SHRA VCTS SHRA VCTS
WDir 110 120 120 120 120 120 120 120 120 120 120 120 120 120
WSpd 10 12 12 12 12 12 12 12 12 12 12 12 12 12
WGst -- -- -- -- -- -- -- -- -- -- -- -- -- --
Raw TAF
KMIA 250856Z 2509/2612 12012KT 6SM SHRA VCTS SCT010CB BKN025
  FM252300 12014KT P6SM VCTS SCT020CB BKN040 OVC100
  FM260300 17010KT P6SM VCSH SCT025 BKN050


Raw METAR
KMIA 250853Z 11010KT 6SM -RA BR FEW012 BKN065 OVC085 24/24 A2986 RMK AO2 SLP111 P0011 60055 T02440239 55011 $
KMIA 250753Z 11010G19KT 6SM -RA BR FEW015 SCT025 OVC110 25/24 A2986 RMK AO2 SLP110 CB MOV NW P0011 T02500239 $
KMIA 250740Z 10013KT 6SM -RA BR FEW013 SCT022 OVC120 25/24 A2985 RMK AO2 CB MOV NW P0010 T02500239 $
KMIA 250653Z 11016G22KT 4SM RA BR FEW007 BKN015CB OVC022 25/24 A2986 RMK AO2 LTG DSNT SW SLP113 CB NW MOV NW P0033 T02500239 $
KMIA 250633Z 12008G16KT 4SM RA BR SCT007 BKN017CB OVC025 24/23 A2987 RMK AO2 VIS W-NW 1 1/4 CB OHD-W-NW MOV NW P0026 T02440233 $
KMIA 250620Z 10012G19KT 3/4SM R09/P6000FT RA BR SCT007 BKN015CB OVC025 23/23 A2988 RMK AO2 CB OHD MOV NW P0019 T02330228 $
KMIA 250607Z 10014KT 1SM R09/4500VP6000FT +RA BR FEW009 BKN015CB OVC030 24/23 A2989 RMK AO2 CB OHD-E-SE MOV NW P0006 T02390233 $
KMIA 250553Z 09015KT 2SM RA BR SCT009 BKN015 OVC030 24/23 A2989 RMK AO2 SLP122 P0019 60021 T02440233 10250 20239 58011 $
KMIA 250543Z 09014KT 1 1/2SM +RA BR SCT009 BKN015 OVC025 24/23 A2989 RMK AO2 LTG DSNT SE P0014 T02390233 $
KMIA 250536Z 09014KT 5SM RA BR SCT009 BKN015 OVC020 24/23 A2990 RMK AO2 LTG DSNT SE P0011 T02390233 $

METAR Board
Radar Display
Forecast Discussion
For situational awareness. Not to be used for flight planning purposes.